sensor_id;sensor_type;location;lat;lon;timestamp;pressure;altitude;pressure_sealevel;temperature;humidity
46836;BME280;32573;51.290;6.926;2023-06-26T00:00:12;99905.56;;;25.31;89.19
46836;BME280;32573;51.290;6.926;2023-06-26T00:02:41;99903.81;;;25.30;88.89
46836;BME280;32573;51.290;6.926;2023-06-26T00:05:09;99907.44;;;25.29;88.52
46836;BME280;32573;51.290;6.926;2023-06-26T00:07:38;99904.81;;;25.27;88.58
46836;BME280;32573;51.290;6.926;2023-06-26T00:10:07;99904.06;;;25.24;88.95
46836;BME280;32573;51.290;6.926;2023-06-26T00:12:36;99900.56;;;25.22;89.26
46836;BME280;32573;51.290;6.926;2023-06-26T00:15:06;99898.88;;;25.19;88.94
46836;BME280;32573;51.290;6.926;2023-06-26T00:17:35;99894.50;;;25.15;89.49
46836;BME280;32573;51.290;6.926;2023-06-26T00:20:05;99900.84;;;25.12;89.03
46836;BME280;32573;51.290;6.926;2023-06-26T00:22:38;99905.47;;;25.09;89.28
46836;BME280;32573;51.290;6.926;2023-06-26T00:25:08;99899.31;;;25.05;89.00
46836;BME280;32573;51.290;6.926;2023-06-26T00:27:38;99893.25;;;25.00;89.64
46836;BME280;32573;51.290;6.926;2023-06-26T00:30:07;99894.28;;;24.96;89.46
46836;BME280;32573;51.290;6.926;2023-06-26T00:32:36;99892.66;;;24.92;89.83
46836;BME280;32573;51.290;6.926;2023-06-26T00:35:05;99907.94;;;24.88;89.79
46836;BME280;32573;51.290;6.926;2023-06-26T00:37:34;99894.75;;;24.84;90.27
46836;BME280;32573;51.290;6.926;2023-06-26T00:40:03;99905.53;;;24.81;90.06
46836;BME280;32573;51.290;6.926;2023-06-26T00:42:33;99896.78;;;24.75;90.18
46836;BME280;32573;51.290;6.926;2023-06-26T00:45:03;99896.03;;;24.72;90.04
46836;BME280;32573;51.290;6.926;2023-06-26T00:47:32;99893.53;;;24.67;90.21
46836;BME280;32573;51.290;6.926;2023-06-26T00:50:00;99890.09;;;24.64;90.38
46836;BME280;32573;51.290;6.926;2023-06-26T00:52:30;99898.19;;;24.61;90.60
46836;BME280;32573;51.290;6.926;2023-06-26T00:54:59;99890.31;;;24.56;91.02
46836;BME280;32573;51.290;6.926;2023-06-26T00:57:28;99897.56;;;24.54;90.93
46836;BME280;32573;51.290;6.926;2023-06-26T01:00:00;99887.03;;;24.48;91.17
46836;BME280;32573;51.290;6.926;2023-06-26T01:02:32;99884.47;;;24.43;91.61
46836;BME280;32573;51.290;6.926;2023-06-26T01:05:02;99890.91;;;24.38;91.49
46836;BME280;32573;51.290;6.926;2023-06-26T01:07:35;99886.56;;;24.33;91.79
46836;BME280;32573;51.290;6.926;2023-06-26T01:10:06;99882.38;;;24.26;92.19
46836;BME280;32573;51.290;6.926;2023-06-26T01:12:36;99886.91;;;24.24;92.38
46836;BME280;32573;51.290;6.926;2023-06-26T01:15:07;99877.22;;;24.20;92.52
46836;BME280;32573;51.290;6.926;2023-06-26T01:17:38;99872.00;;;24.16;92.63
46836;BME280;32573;51.290;6.926;2023-06-26T01:20:11;99873.06;;;24.11;92.97
46836;BME280;32573;51.290;6.926;2023-06-26T01:22:47;99868.75;;;24.06;93.11
46836;BME280;32573;51.290;6.926;2023-06-26T01:25:21;99863.59;;;24.01;93.34
46836;BME280;32573;51.290;6.926;2023-06-26T01:27:53;99868.19;;;23.96;93.53
46836;BME280;32573;51.290;6.926;2023-06-26T01:30:25;99864.78;;;23.91;93.75
46836;BME280;32573;51.290;6.926;2023-06-26T01:32:53;99856.03;;;23.86;93.67
46836;BME280;32573;51.290;6.926;2023-06-26T01:35:22;99860.63;;;23.82;93.84
46836;BME280;32573;51.290;6.926;2023-06-26T01:37:51;99864.25;;;23.80;93.71
46836;BME280;32573;51.290;6.926;2023-06-26T01:40:19;99860.78;;;23.76;93.80
46836;BME280;32573;51.290;6.926;2023-06-26T01:42:48;99852.88;;;23.73;93.72
46836;BME280;32573;51.290;6.926;2023-06-26T01:45:27;99860.97;;;23.70;93.73
46836;BME280;32573;51.290;6.926;2023-06-26T01:48:00;99852.09;;;23.68;93.64
46836;BME280;32573;51.290;6.926;2023-06-26T01:50:31;99854.88;;;23.65;93.82
46836;BME280;32573;51.290;6.926;2023-06-26T01:53:04;99853.19;;;23.62;93.82
46836;BME280;32573;51.290;6.926;2023-06-26T01:55:41;99858.63;;;23.59;93.52
46836;BME280;32573;51.290;6.926;2023-06-26T01:58:12;99857.78;;;23.57;93.38
46836;BME280;32573;51.290;6.926;2023-06-26T02:00:43;99850.75;;;23.55;93.33
46836;BME280;32573;51.290;6.926;2023-06-26T02:03:11;99854.31;;;23.54;93.36
46836;BME280;32573;51.290;6.926;2023-06-26T02:05:40;99855.25;;;23.53;93.00
46836;BME280;32573;51.290;6.926;2023-06-26T02:08:10;99849.06;;;23.51;92.89
46836;BME280;32573;51.290;6.926;2023-06-26T02:10:39;99850.88;;;23.50;92.97
46836;BME280;32573;51.290;6.926;2023-06-26T02:13:08;99857.16;;;23.49;92.82
46836;BME280;32573;51.290;6.926;2023-06-26T02:15:36;99859.84;;;23.49;92.97
46836;BME280;32573;51.290;6.926;2023-06-26T02:18:06;99865.22;;;23.47;92.96
46836;BME280;32573;51.290;6.926;2023-06-26T02:20:35;99858.13;;;23.46;93.12
46836;BME280;32573;51.290;6.926;2023-06-26T02:23:04;99872.38;;;23.45;92.71
46836;BME280;32573;51.290;6.926;2023-06-26T02:25:35;99866.22;;;23.43;92.69
46836;BME280;32573;51.290;6.926;2023-06-26T02:28:06;99872.53;;;23.41;92.94
46836;BME280;32573;51.290;6.926;2023-06-26T02:30:36;99866.38;;;23.39;92.97
46836;BME280;32573;51.290;6.926;2023-06-26T02:33:06;99870.81;;;23.38;93.13
46836;BME280;32573;51.290;6.926;2023-06-26T02:35:34;99872.63;;;23.38;93.01
46836;BME280;32573;51.290;6.926;2023-06-26T02:38:03;99879.78;;;23.36;92.96
46836;BME280;32573;51.290;6.926;2023-06-26T02:40:32;99878.00;;;23.36;93.21
46836;BME280;32573;51.290;6.926;2023-06-26T02:43:02;99882.47;;;23.36;92.96
46836;BME280;32573;51.290;6.926;2023-06-26T02:45:31;99890.53;;;23.34;93.36
46836;BME280;32573;51.290;6.926;2023-06-26T02:48:00;99896.78;;;23.33;93.45
46836;BME280;32573;51.290;6.926;2023-06-26T02:50:32;99908.41;;;23.32;93.53
46836;BME280;32573;51.290;6.926;2023-06-26T02:53:06;99897.81;;;23.29;93.54
46836;BME280;32573;51.290;6.926;2023-06-26T02:55:38;99902.25;;;23.29;93.97
46836;BME280;32573;51.290;6.926;2023-06-26T02:58:07;99903.22;;;23.26;93.53
46836;BME280;32573;51.290;6.926;2023-06-26T03:00:37;99900.63;;;23.24;93.75
46836;BME280;32573;51.290;6.926;2023-06-26T03:03:12;99897.09;;;23.22;93.89
46836;BME280;32573;51.290;6.926;2023-06-26T03:05:42;99904.25;;;23.22;94.26
46836;BME280;32573;51.290;6.926;2023-06-26T03:08:11;99906.06;;;23.21;94.42
46836;BME280;32573;51.290;6.926;2023-06-26T03:10:39;99913.22;;;23.19;94.12
46836;BME280;32573;51.290;6.926;2023-06-26T03:13:08;99910.59;;;23.18;94.22
46836;BME280;32573;51.290;6.926;2023-06-26T03:15:37;99916.84;;;23.17;94.21
46836;BME280;32573;51.290;6.926;2023-06-26T03:18:06;99924.88;;;23.17;94.13
46836;BME280;32573;51.290;6.926;2023-06-26T03:20:34;99928.44;;;23.16;94.37
46836;BME280;32573;51.290;6.926;2023-06-26T03:23:04;99922.22;;;23.15;94.51
46836;BME280;32573;51.290;6.926;2023-06-26T03:25:33;99932.94;;;23.14;94.76
46836;BME280;32573;51.290;6.926;2023-06-26T03:28:17;99923.19;;;23.13;94.56
46836;BME280;32573;51.290;6.926;2023-06-26T03:30:46;99931.22;;;23.13;94.93
46836;BME280;32573;51.290;6.926;2023-06-26T03:33:16;99924.13;;;23.12;95.20
46836;BME280;32573;51.290;6.926;2023-06-26T03:35:44;99928.53;;;23.13;95.10
46836;BME280;32573;51.290;6.926;2023-06-26T03:38:15;99923.28;;;23.10;95.34
46836;BME280;32573;51.290;6.926;2023-06-26T03:40:45;99928.53;;;23.13;95.80
46836;BME280;32573;51.290;6.926;2023-06-26T03:43:13;99932.06;;;23.13;96.13
46836;BME280;32573;51.290;6.926;2023-06-26T03:45:49;99933.88;;;23.13;96.17
46836;BME280;32573;51.290;6.926;2023-06-26T03:48:17;99935.72;;;23.11;96.40
46836;BME280;32573;51.290;6.926;2023-06-26T03:50:46;99936.56;;;23.11;96.78
46836;BME280;32573;51.290;6.926;2023-06-26T03:53:17;99930.38;;;23.11;96.99
46836;BME280;32573;51.290;6.926;2023-06-26T03:55:45;99939.31;;;23.10;97.16
46836;BME280;32573;51.290;6.926;2023-06-26T03:58:14;99934.88;;;23.09;97.79
46836;BME280;32573;51.290;6.926;2023-06-26T04:00:43;99939.34;;;23.08;97.91
46836;BME280;32573;51.290;6.926;2023-06-26T04:03:12;99937.59;;;23.07;98.50
46836;BME280;32573;51.290;6.926;2023-06-26T04:05:42;99941.13;;;23.08;98.61
46836;BME280;32573;51.290;6.926;2023-06-26T04:08:10;99948.22;;;23.09;98.64
46836;BME280;32573;51.290;6.926;2023-06-26T04:10:40;99951.78;;;23.09;99.12
46836;BME280;32573;51.290;6.926;2023-06-26T04:13:09;99951.72;;;23.11;99.29
46836;BME280;32573;51.290;6.926;2023-06-26T04:15:37;99957.06;;;23.11;99.48
46836;BME280;32573;51.290;6.926;2023-06-26T04:18:07;99957.06;;;23.11;99.96
46836;BME280;32573;51.290;6.926;2023-06-26T04:20:39;99962.38;;;23.12;100.00
46836;BME280;32573;51.290;6.926;2023-06-26T04:23:09;99965.94;;;23.13;100.00
46836;BME280;32573;51.290;6.926;2023-06-26T04:25:37;99961.50;;;23.12;100.00
46836;BME280;32573;51.290;6.926;2023-06-26T04:28:08;99964.19;;;23.12;100.00
46836;BME280;32573;51.290;6.926;2023-06-26T04:30:37;99973.09;;;23.11;100.00
46836;BME280;32573;51.290;6.926;2023-06-26T04:33:06;99966.00;;;23.10;100.00
46836;BME280;32573;51.290;6.926;2023-06-26T04:35:39;99974.94;;;23.09;100.00
46836;BME280;32573;51.290;6.926;2023-06-26T04:38:07;99971.34;;;23.10;100.00
46836;BME280;32573;51.290;6.926;2023-06-26T04:40:36;99973.19;;;23.08;100.00
46836;BME280;32573;51.290;6.926;2023-06-26T04:43:05;99971.38;;;23.08;100.00
46836;BME280;32573;51.290;6.926;2023-06-26T04:45:35;99975.81;;;23.09;100.00
46836;BME280;32573;51.290;6.926;2023-06-26T04:48:04;99977.56;;;23.10;100.00
46836;BME280;32573;51.290;6.926;2023-06-26T04:50:33;99983.78;;;23.11;100.00
46836;BME280;32573;51.290;6.926;2023-06-26T04:53:03;99981.09;;;23.11;100.00
46836;BME280;32573;51.290;6.926;2023-06-26T04:55:31;99976.72;;;23.08;100.00
46836;BME280;32573;51.290;6.926;2023-06-26T04:58:00;99980.31;;;23.07;100.00
46836;BME280;32573;51.290;6.926;2023-06-26T05:00:28;99985.69;;;23.06;100.00
46836;BME280;32573;51.290;6.926;2023-06-26T05:02:58;99988.47;;;23.01;100.00
46836;BME280;32573;51.290;6.926;2023-06-26T05:05:28;99991.22;;;22.99;100.00
46836;BME280;32573;51.290;6.926;2023-06-26T05:07:57;99989.50;;;22.95;100.00
46836;BME280;32573;51.290;6.926;2023-06-26T05:10:25;99989.50;;;22.94;100.00
46836;BME280;32573;51.290;6.926;2023-06-26T05:12:54;99992.13;;;22.97;100.00
46836;BME280;32573;51.290;6.926;2023-06-26T05:15:23;99985.97;;;22.93;100.00
46836;BME280;32573;51.290;6.926;2023-06-26T05:17:51;99985.94;;;22.95;100.00
46836;BME280;32573;51.290;6.926;2023-06-26T05:20:21;99992.09;;;22.98;100.00
46836;BME280;32573;51.290;6.926;2023-06-26T05:22:50;99998.28;;;23.00;100.00
46836;BME280;32573;51.290;6.926;2023-06-26T05:25:19;99999.09;;;23.04;100.00
46836;BME280;32573;51.290;6.926;2023-06-26T05:27:48;100002.59;;;23.06;100.00
46836;BME280;32573;51.290;6.926;2023-06-26T05:30:18;100003.50;;;23.07;100.00
46836;BME280;32573;51.290;6.926;2023-06-26T05:32:47;100008.84;;;23.07;100.00
46836;BME280;32573;51.290;6.926;2023-06-26T05:35:18;100013.34;;;23.04;100.00
46836;BME280;32573;51.290;6.926;2023-06-26T05:37:50;100023.16;;;23.02;100.00
46836;BME280;32573;51.290;6.926;2023-06-26T05:40:19;100018.78;;;23.00;100.00
46836;BME280;32573;51.290;6.926;2023-06-26T05:42:48;100034.84;;;22.98;100.00
46836;BME280;32573;51.290;6.926;2023-06-26T05:45:17;100034.03;;;22.93;100.00
46836;BME280;32573;51.290;6.926;2023-06-26T05:47:48;100036.81;;;22.89;100.00
46836;BME280;32573;51.290;6.926;2023-06-26T05:50:19;100020.94;;;22.84;100.00
46836;BME280;32573;51.290;6.926;2023-06-26T05:52:50;100028.94;;;22.84;100.00
46836;BME280;32573;51.290;6.926;2023-06-26T05:55:19;100035.94;;;22.88;100.00
46836;BME280;32573;51.290;6.926;2023-06-26T05:57:48;100034.16;;;22.89;100.00
46836;BME280;32573;51.290;6.926;2023-06-26T06:00:18;100019.03;;;22.89;100.00
46836;BME280;32573;51.290;6.926;2023-06-26T06:02:47;100018.09;;;22.90;100.00
46836;BME280;32573;51.290;6.926;2023-06-26T06:05:16;100022.59;;;22.88;100.00
46836;BME280;32573;51.290;6.926;2023-06-26T06:07:44;100032.44;;;22.86;100.00
46836;BME280;32573;51.290;6.926;2023-06-26T06:10:14;100029.81;;;22.85;100.00
46836;BME280;32573;51.290;6.926;2023-06-26T06:12:43;100040.53;;;22.83;100.00
46836;BME280;32573;51.290;6.926;2023-06-26T06:15:11;100044.13;;;22.82;100.00
46836;BME280;32573;51.290;6.926;2023-06-26T06:17:46;100043.16;;;22.85;100.00
46836;BME280;32573;51.290;6.926;2023-06-26T06:20:16;100042.22;;;22.87;100.00
46836;BME280;32573;51.290;6.926;2023-06-26T06:22:48;100049.28;;;22.88;100.00
46836;BME280;32573;51.290;6.926;2023-06-26T06:25:22;100046.63;;;22.88;100.00
46836;BME280;32573;51.290;6.926;2023-06-26T06:27:51;100051.09;;;22.88;100.00
46836;BME280;32573;51.290;6.926;2023-06-26T06:30:20;100057.31;;;22.88;100.00
46836;BME280;32573;51.290;6.926;2023-06-26T06:33:10;100053.78;;;22.86;100.00
46836;BME280;32573;51.290;6.926;2023-06-26T06:35:39;100067.22;;;22.83;100.00
46836;BME280;32573;51.290;6.926;2023-06-26T06:38:15;100084.25;;;22.79;100.00
46836;BME280;32573;51.290;6.926;2023-06-26T06:40:50;100071.03;;;22.73;100.00
46836;BME280;32573;51.290;6.926;2023-06-26T06:43:21;100071.91;;;22.73;100.00
46836;BME280;32573;51.290;6.926;2023-06-26T06:45:56;100076.34;;;22.73;100.00
46836;BME280;32573;51.290;6.926;2023-06-26T06:48:36;100078.06;;;22.75;100.00
46836;BME280;32573;51.290;6.926;2023-06-26T06:51:06;100080.72;;;22.77;100.00
46836;BME280;32573;51.290;6.926;2023-06-26T06:53:36;100078.91;;;22.79;100.00
46836;BME280;32573;51.290;6.926;2023-06-26T06:58:55;100092.25;;;22.79;100.00
46836;BME280;32573;51.290;6.926;2023-06-26T07:01:24;100095.78;;;22.79;100.00
46836;BME280;32573;51.290;6.926;2023-06-26T07:03:57;100102.94;;;22.79;100.00
46836;BME280;32573;51.290;6.926;2023-06-26T07:06:33;100113.59;;;22.79;100.00
46836;BME280;32573;51.290;6.926;2023-06-26T07:09:03;100108.22;;;22.80;100.00
46836;BME280;32573;51.290;6.926;2023-06-26T07:11:36;100113.56;;;22.80;100.00
46836;BME280;32573;51.290;6.926;2023-06-26T07:14:06;100115.28;;;22.83;100.00
46836;BME280;32573;51.290;6.926;2023-06-26T07:16:40;100110.78;;;22.85;100.00
46836;BME280;32573;51.290;6.926;2023-06-26T07:19:11;100125.81;;;22.89;100.00
46836;BME280;32573;51.290;6.926;2023-06-26T07:21:42;100112.41;;;22.91;100.00
46836;BME280;32573;51.290;6.926;2023-06-26T07:24:18;100119.56;;;22.90;100.00
46836;BME280;32573;51.290;6.926;2023-06-26T07:26:50;100114.28;;;22.87;100.00
46836;BME280;32573;51.290;6.926;2023-06-26T07:29:28;100116.13;;;22.85;100.00
46836;BME280;32573;51.290;6.926;2023-06-26T07:31:59;100109.81;;;22.89;100.00
46836;BME280;32573;51.290;6.926;2023-06-26T07:34:34;100112.47;;;22.89;100.00
46836;BME280;32573;51.290;6.926;2023-06-26T07:37:07;100107.94;;;22.93;100.00
46836;BME280;32573;51.290;6.926;2023-06-26T07:39:38;100107.91;;;22.94;100.00
46836;BME280;32573;51.290;6.926;2023-06-26T07:42:08;100111.38;;;22.99;100.00
46836;BME280;32573;51.290;6.926;2023-06-26T07:44:37;100116.75;;;22.98;100.00
46836;BME280;32573;51.290;6.926;2023-06-26T07:47:11;100112.28;;;22.97;100.00
46836;BME280;32573;51.290;6.926;2023-06-26T07:49:56;100118.53;;;22.97;100.00
46836;BME280;32573;51.290;6.926;2023-06-26T07:52:28;100124.72;;;22.99;100.00
46836;BME280;32573;51.290;6.926;2023-06-26T07:54:57;100122.84;;;23.03;100.00
46836;BME280;32573;51.290;6.926;2023-06-26T07:57:29;100123.66;;;23.07;100.00
46836;BME280;32573;51.290;6.926;2023-06-26T08:00:07;100117.41;;;23.08;100.00
46836;BME280;32573;51.290;6.926;2023-06-26T08:02:42;100125.31;;;23.11;100.00
46836;BME280;32573;51.290;6.926;2023-06-26T08:05:10;100136.78;;;23.16;100.00
46836;BME280;32573;51.290;6.926;2023-06-26T08:07:39;100133.13;;;23.20;100.00
46836;BME280;32573;51.290;6.926;2023-06-26T08:10:08;100131.31;;;23.22;100.00
46836;BME280;32573;51.290;6.926;2023-06-26T08:12:38;100144.56;;;23.25;100.00
46836;BME280;32573;51.290;6.926;2023-06-26T08:15:09;100145.41;;;23.27;100.00
46836;BME280;32573;51.290;6.926;2023-06-26T08:17:38;100148.97;;;23.26;100.00
46836;BME280;32573;51.290;6.926;2023-06-26T08:20:07;100140.97;;;23.26;100.00
46836;BME280;32573;51.290;6.926;2023-06-26T08:22:36;100139.25;;;23.23;100.00
46836;BME280;32573;51.290;6.926;2023-06-26T08:25:05;100156.25;;;23.21;100.00
46836;BME280;32573;51.290;6.926;2023-06-26T08:27:34;100150.09;;;23.19;100.00
46836;BME280;32573;51.290;6.926;2023-06-26T08:30:04;100157.13;;;23.21;100.00
46836;BME280;32573;51.290;6.926;2023-06-26T08:32:33;100165.91;;;23.27;100.00
46836;BME280;32573;51.290;6.926;2023-06-26T08:35:01;100170.31;;;23.29;100.00
46836;BME280;32573;51.290;6.926;2023-06-26T08:37:30;100171.13;;;23.31;100.00
46836;BME280;32573;51.290;6.926;2023-06-26T08:40:00;100170.16;;;23.35;100.00
46836;BME280;32573;51.290;6.926;2023-06-26T08:42:28;100170.06;;;23.38;100.00
46836;BME280;32573;51.290;6.926;2023-06-26T08:44:57;100171.84;;;23.39;100.00
46836;BME280;32573;51.290;6.926;2023-06-26T08:47:33;100180.75;;;23.38;100.00
46836;BME280;32573;51.290;6.926;2023-06-26T08:50:07;100177.31;;;23.33;100.00
46836;BME280;32573;51.290;6.926;2023-06-26T08:52:41;100183.66;;;23.29;100.00
46836;BME280;32573;51.290;6.926;2023-06-26T08:55:11;100181.03;;;23.26;100.00
46836;BME280;32573;51.290;6.926;2023-06-26T08:57:40;100189.03;;;23.28;100.00
46836;BME280;32573;51.290;6.926;2023-06-26T09:00:12;100187.22;;;23.30;100.00
46836;BME280;32573;51.290;6.926;2023-06-26T09:02:43;100197.84;;;23.31;100.00
46836;BME280;32573;51.290;6.926;2023-06-26T09:05:12;100188.06;;;23.32;100.00
46836;BME280;32573;51.290;6.926;2023-06-26T09:07:41;100195.13;;;23.34;100.00
46836;BME280;32573;51.290;6.926;2023-06-26T09:10:10;100196.78;;;23.38;100.00
46836;BME280;32573;51.290;6.926;2023-06-26T09:12:39;100191.38;;;23.41;100.00
46836;BME280;32573;51.290;6.926;2023-06-26T09:15:07;100197.53;;;23.43;100.00
46836;BME280;32573;51.290;6.926;2023-06-26T09:17:45;100190.38;;;23.45;100.00
46836;BME280;32573;51.290;6.926;2023-06-26T09:20:14;100186.81;;;23.46;100.00
46836;BME280;32573;51.290;6.926;2023-06-26T09:22:47;100188.56;;;23.46;100.00
46836;BME280;32573;51.290;6.926;2023-06-26T09:25:16;100185.00;;;23.47;100.00
46836;BME280;32573;51.290;6.926;2023-06-26T09:27:45;100185.88;;;23.47;100.00
46836;BME280;32573;51.290;6.926;2023-06-26T09:30:16;100192.97;;;23.48;100.00
46836;BME280;32573;51.290;6.926;2023-06-26T09:32:47;100191.13;;;23.51;100.00
46836;BME280;32573;51.290;6.926;2023-06-26T09:35:18;100196.41;;;23.54;100.00
46836;BME280;32573;51.290;6.926;2023-06-26T09:37:46;100197.22;;;23.57;100.00
46836;BME280;32573;51.290;6.926;2023-06-26T09:40:15;100192.75;;;23.58;100.00
46836;BME280;32573;51.290;6.926;2023-06-26T09:42:44;100198.97;;;23.58;100.00
46836;BME280;32573;51.290;6.926;2023-06-26T09:45:18;100200.75;;;23.59;100.00
46836;BME280;32573;51.290;6.926;2023-06-26T09:47:49;100199.81;;;23.60;100.00
46836;BME280;32573;51.290;6.926;2023-06-26T09:50:21;100200.53;;;23.67;100.00
46836;BME280;32573;51.290;6.926;2023-06-26T09:52:51;100193.38;;;23.69;100.00
46836;BME280;32573;51.290;6.926;2023-06-26T09:55:20;100199.50;;;23.74;100.00
46836;BME280;32573;51.290;6.926;2023-06-26T09:57:50;100203.84;;;23.78;100.00
46836;BME280;32573;51.290;6.926;2023-06-26T10:00:19;100200.25;;;23.79;100.00
46836;BME280;32573;51.290;6.926;2023-06-26T10:02:48;100208.28;;;23.79;100.00
46836;BME280;32573;51.290;6.926;2023-06-26T10:05:17;100215.38;;;23.80;100.00
46836;BME280;32573;51.290;6.926;2023-06-26T10:07:46;100222.50;;;23.81;100.00
46836;BME280;32573;51.290;6.926;2023-06-26T10:10:16;100217.16;;;23.81;100.00
46836;BME280;32573;51.290;6.926;2023-06-26T10:12:48;100220.63;;;23.83;100.00
46836;BME280;32573;51.290;6.926;2023-06-26T10:15:17;100213.38;;;23.88;100.00
46836;BME280;32573;51.290;6.926;2023-06-26T10:17:50;100206.03;;;23.97;100.00
46836;BME280;32573;51.290;6.926;2023-06-26T10:20:22;100213.06;;;24.01;100.00
46836;BME280;32573;51.290;6.926;2023-06-26T10:22:55;100227.25;;;24.04;100.00
46836;BME280;32573;51.290;6.926;2023-06-26T10:25:26;100218.34;;;24.04;100.00
46836;BME280;32573;51.290;6.926;2023-06-26T10:27:57;100214.72;;;24.05;100.00
46836;BME280;32573;51.290;6.926;2023-06-26T10:30:30;100211.97;;;24.08;100.00
46836;BME280;32573;51.290;6.926;2023-06-26T10:33:02;100210.97;;;24.12;100.00
46836;BME280;32573;51.290;6.926;2023-06-26T10:35:31;100215.25;;;24.19;100.00
46836;BME280;32573;51.290;6.926;2023-06-26T10:38:00;100213.44;;;24.20;100.00
46836;BME280;32573;51.290;6.926;2023-06-26T10:40:40;100218.75;;;24.21;100.00
46836;BME280;32573;51.290;6.926;2023-06-26T10:43:10;100221.34;;;24.24;100.00
46836;BME280;32573;51.290;6.926;2023-06-26T10:45:43;100215.91;;;24.27;100.00
46836;BME280;32573;51.290;6.926;2023-06-26T10:48:14;100229.28;;;24.27;100.00
46836;BME280;32573;51.290;6.926;2023-06-26T10:50:49;100225.69;;;24.28;100.00
46836;BME280;32573;51.290;6.926;2023-06-26T10:53:23;100227.47;;;24.28;100.00
46836;BME280;32573;51.290;6.926;2023-06-26T10:55:58;100227.53;;;24.26;100.00
46836;BME280;32573;51.290;6.926;2023-06-26T10:58:33;100223.00;;;24.28;100.00
46836;BME280;32573;51.290;6.926;2023-06-26T11:01:14;100218.47;;;24.32;100.00
46836;BME280;32573;51.290;6.926;2023-06-26T11:03:46;100225.41;;;24.39;100.00
46836;BME280;32573;51.290;6.926;2023-06-26T11:06:19;100224.34;;;24.45;100.00
46836;BME280;32573;51.290;6.926;2023-06-26T11:08:49;100231.47;;;24.46;100.00
46836;BME280;32573;51.290;6.926;2023-06-26T11:11:17;100237.75;;;24.43;100.00
46836;BME280;32573;51.290;6.926;2023-06-26T11:13:57;100238.91;;;24.35;100.00
46836;BME280;32573;51.290;6.926;2023-06-26T11:16:35;100251.44;;;24.32;100.00
46836;BME280;32573;51.290;6.926;2023-06-26T11:19:09;100246.19;;;24.29;100.00
46836;BME280;32573;51.290;6.926;2023-06-26T11:21:47;100246.97;;;24.33;100.00
46836;BME280;32573;51.290;6.926;2023-06-26T11:24:20;100261.16;;;24.37;100.00
46836;BME280;32573;51.290;6.926;2023-06-26T11:26:51;100258.38;;;24.40;100.00
46836;BME280;32573;51.290;6.926;2023-06-26T11:29:22;100256.47;;;24.45;100.00
46836;BME280;32573;51.290;6.926;2023-06-26T11:31:58;100273.31;;;24.50;100.00
46836;BME280;32573;51.290;6.926;2023-06-26T11:34:36;100280.47;;;24.49;100.00
46836;BME280;32573;51.290;6.926;2023-06-26T11:37:11;100272.34;;;24.52;100.00
46836;BME280;32573;51.290;6.926;2023-06-26T11:39:48;100265.09;;;24.56;100.00
46836;BME280;32573;51.290;6.926;2023-06-26T11:42:20;100265.03;;;24.59;99.51
46836;BME280;32573;51.290;6.926;2023-06-26T11:44:53;100259.56;;;24.62;99.20
46836;BME280;32573;51.290;6.926;2023-06-26T11:47:23;100265.81;;;24.63;97.25
46836;BME280;32573;51.290;6.926;2023-06-26T11:49:57;100268.44;;;24.64;95.13
46836;BME280;32573;51.290;6.926;2023-06-26T11:52:33;100289.88;;;24.64;95.20
46836;BME280;32573;51.290;6.926;2023-06-26T11:55:06;100262.91;;;24.70;95.06
46836;BME280;32573;51.290;6.926;2023-06-26T11:57:34;100269.84;;;24.78;95.56
46836;BME280;32573;51.290;6.926;2023-06-26T12:00:12;100277.72;;;24.84;94.20
46836;BME280;32573;51.290;6.926;2023-06-26T12:02:45;100281.13;;;24.89;93.98
46836;BME280;32573;51.290;6.926;2023-06-26T12:05:21;100285.56;;;24.90;92.85
46836;BME280;32573;51.290;6.926;2023-06-26T12:07:52;100290.06;;;24.88;92.96
46836;BME280;32573;51.290;6.926;2023-06-26T12:10:22;100291.91;;;24.86;92.43
46836;BME280;32573;51.290;6.926;2023-06-26T12:12:51;100285.75;;;24.84;92.58
46836;BME280;32573;51.290;6.926;2023-06-26T12:15:21;100295.63;;;24.82;91.36
46836;BME280;32573;51.290;6.926;2023-06-26T12:17:52;100297.50;;;24.78;90.95
46836;BME280;32573;51.290;6.926;2023-06-26T12:20:23;100298.66;;;24.69;89.63
46836;BME280;32573;51.290;6.926;2023-06-26T12:22:53;100300.66;;;24.61;89.85
46836;BME280;32573;51.290;6.926;2023-06-26T12:25:23;100294.53;;;24.56;90.20
46836;BME280;32573;51.290;6.926;2023-06-26T12:27:55;100299.88;;;24.56;90.72
46836;BME280;32573;51.290;6.926;2023-06-26T12:30:24;100312.31;;;24.59;90.71
46836;BME280;32573;51.290;6.926;2023-06-26T12:32:53;100315.13;;;24.54;89.15
46836;BME280;32573;51.290;6.926;2023-06-26T12:35:34;100327.59;;;24.55;84.53
46836;BME280;32573;51.290;6.926;2023-06-26T12:38:09;100325.78;;;24.56;88.81
46836;BME280;32573;51.290;6.926;2023-06-26T12:40:45;100328.34;;;24.60;89.27
46836;BME280;32573;51.290;6.926;2023-06-26T12:43:23;100338.91;;;24.66;87.84
46836;BME280;32573;51.290;6.926;2023-06-26T12:45:55;100325.53;;;24.66;87.78
46836;BME280;32573;51.290;6.926;2023-06-26T12:48:37;100344.94;;;24.73;84.95
46836;BME280;32573;51.290;6.926;2023-06-26T12:51:17;100327.81;;;24.79;86.59
46836;BME280;32573;51.290;6.926;2023-06-26T12:53:46;100325.16;;;24.79;84.04
46836;BME280;32573;51.290;6.926;2023-06-26T12:56:22;100323.25;;;24.84;83.92
46836;BME280;32573;51.290;6.926;2023-06-26T12:58:54;100333.97;;;24.84;83.67
46836;BME280;32573;51.290;6.926;2023-06-26T13:01:27;100322.19;;;24.89;83.18
46836;BME280;32573;51.290;6.926;2023-06-26T13:03:55;100328.28;;;24.94;83.63
46836;BME280;32573;51.290;6.926;2023-06-26T13:06:25;100321.88;;;25.00;83.86
46836;BME280;32573;51.290;6.926;2023-06-26T13:08:54;100320.81;;;25.06;84.02